Time;durP1;ratioP1;P1;durP2;ratioP2;P2;SDS_P1;SDS_P2;PMS_P1;PMS_P2;Temp;Humidity;BMP_temperature;BMP_pressure;BME280_temperature;BME280_humidity;BME280_pressure;Samples;Min_cycle;Max_cycle;Signal;HPM_P1;HPM_P2
2022/01/04 00:00:01;;;;;;;2.08;1.05;;;5.70;99.90;;;;;;5029573;28;20215;-69
2022/01/04 00:02:33;;;;;;;1.42;0.75;;;5.70;99.90;;;;;;5026474;28;20586;-69
2022/01/04 00:05:06;;;;;;;1.92;1.80;;;5.70;99.90;;;;;;5026698;28;20579;-69
2022/01/04 00:07:38;;;;;;;6.15;1.33;;;5.70;99.90;;;;;;5028091;28;20225;-70
2022/01/04 00:10:21;;;;;;;1.30;1.20;;;5.70;99.90;;;;;;5027880;28;20238;-69
2022/01/04 00:15:45;;;;;;;1.45;1.33;;;5.60;99.90;;;;;;5026640;28;20698;-69
2022/01/04 00:18:18;;;;;;;1.30;1.20;;;5.50;99.90;;;;;;5027213;28;20214;-69
2022/01/04 00:20:50;;;;;;;1.50;1.40;;;5.50;99.90;;;;;;5028080;28;20226;-69
2022/01/04 00:23:21;;;;;;;1.60;1.20;;;5.50;99.90;;;;;;5027606;28;20329;-70
2022/01/04 00:25:52;;;;;;;0.93;0.93;;;5.50;99.90;;;;;;5018899;28;20227;-69
2022/01/04 00:28:23;;;;;;;1.20;1.15;;;5.50;99.90;;;;;;5027617;28;20226;-68
2022/01/04 00:30:56;;;;;;;1.75;0.95;;;5.50;99.90;;;;;;5027498;28;20219;-69
2022/01/04 00:33:29;;;;;;;2.22;1.35;;;5.40;99.90;;;;;;5016755;28;20230;-69
2022/01/04 00:36:00;;;;;;;1.63;1.17;;;5.30;99.90;;;;;;5029472;28;20226;-69
2022/01/04 00:38:33;;;;;;;2.55;1.42;;;5.30;99.90;;;;;;5027118;28;20229;-69
2022/01/04 00:41:04;;;;;;;0.93;0.93;;;5.20;99.90;;;;;;5027739;28;20237;-69
2022/01/04 00:43:35;;;;;;;0.80;0.80;;;5.20;99.90;;;;;;5025486;28;20316;-69
2022/01/04 00:46:07;;;;;;;2.60;1.40;;;5.10;99.90;;;;;;5029185;28;20252;-69
2022/01/04 00:51:27;;;;;;;1.63;1.05;;;5.00;99.90;;;;;;5027840;28;20223;-70
2022/01/04 00:53:58;;;;;;;0.80;0.80;;;5.10;99.90;;;;;;5026914;28;20250;-69
2022/01/04 00:56:29;;;;;;;1.10;1.00;;;5.00;99.90;;;;;;5029188;28;20218;-70
2022/01/04 00:59:00;;;;;;;2.85;1.33;;;5.10;99.90;;;;;;5011443;28;20652;-71
2022/01/04 01:01:31;;;;;;;1.10;1.10;;;5.10;99.90;;;;;;5027165;28;20660;-69
2022/01/04 01:04:07;;;;;;;1.40;1.30;;;5.00;99.90;;;;;;5020197;28;20229;-68
2022/01/04 01:06:38;;;;;;;2.17;1.60;;;5.10;99.90;;;;;;5026778;28;20254;-68
2022/01/04 01:09:09;;;;;;;1.17;1.08;;;5.10;99.90;;;;;;5026534;28;20686;-67
2022/01/04 01:11:42;;;;;;;2.83;1.60;;;5.10;99.90;;;;;;5022937;28;20592;-69
2022/01/04 01:14:13;;;;;;;1.80;1.52;;;5.10;99.90;;;;;;5021812;28;20222;-67
2022/01/04 01:16:46;;;;;;;2.78;1.60;;;5.00;99.90;;;;;;5026522;28;20305;-68
2022/01/04 01:19:20;;;;;;;47.83;9.30;;;4.90;99.90;;;;;;5031089;28;20236;-71
2022/01/04 01:21:54;;;;;;;1.00;1.00;;;4.80;99.90;;;;;;5031057;28;20293;-71
2022/01/04 01:24:27;;;;;;;2.53;1.00;;;4.60;99.90;;;;;;5041411;28;20221;-68
2022/01/04 01:26:58;;;;;;;1.38;1.27;;;4.60;99.90;;;;;;5026593;28;20233;-69
2022/01/04 01:29:32;;;;;;;1.50;1.40;;;4.60;99.90;;;;;;5025455;28;20234;-68
2022/01/04 01:32:03;;;;;;;1.50;1.30;;;4.50;99.90;;;;;;5027261;28;20652;-71
2022/01/04 01:34:37;;;;;;;0.80;0.80;;;4.40;99.90;;;;;;5012847;28;20241;-71
2022/01/04 01:37:10;;;;;;;1.73;0.90;;;4.30;99.90;;;;;;5031593;28;20241;-70
2022/01/04 01:39:43;;;;;;;0.77;0.77;;;4.30;99.90;;;;;;5024224;28;20234;-73
2022/01/04 01:45:29;;;;;;;0.90;0.90;;;4.10;99.90;;;;;;5026220;28;20225;-72
2022/01/04 01:48:00;;;;;;;0.85;0.85;;;4.20;99.90;;;;;;5034255;28;20304;-71
2022/01/04 01:50:34;;;;;;;1.50;1.40;;;4.10;99.90;;;;;;5035112;28;20237;-66
2022/01/04 01:53:06;;;;;;;2.20;2.10;;;4.10;99.90;;;;;;5024477;28;20306;-67
2022/01/04 01:55:43;;;;;;;1.63;1.52;;;4.10;99.90;;;;;;5036809;28;20206;-77
2022/01/04 01:58:14;;;;;;;1.58;1.48;;;4.20;99.90;;;;;;5021317;28;20317;-68
2022/01/04 02:00:46;;;;;;;2.03;1.92;;;4.20;99.90;;;;;;5025815;28;20215;-70
2022/01/04 02:03:32;;;;;;;2.92;2.78;;;4.30;99.90;;;;;;5027052;28;20585;-73
2022/01/04 02:06:42;;;;;;;37.65;9.25;;;4.30;99.90;;;;;;5009543;28;20250;-71
2022/01/04 02:13:30;;;;;;;1.58;1.48;;;4.20;99.90;;;;;;5022252;28;20225;-76
2022/01/04 02:16:55;;;;;;;2.65;1.40;;;4.20;99.90;;;;;;5031842;28;20245;-74
2022/01/04 02:26:57;;;;;;;1.92;1.30;;;4.30;99.90;;;;;;5030612;28;20237;-72
2022/01/04 02:30:03;;;;;;;1.98;1.77;;;4.20;99.90;;;;;;5022711;28;20226;-74
2022/01/04 02:32:39;;;;;;;1.77;1.67;;;4.10;99.90;;;;;;5030910;28;20222;-73
2022/01/04 02:39:37;;;;;;;1.55;1.45;;;4.10;99.90;;;;;;4925971;29;20229;-73
2022/01/04 02:42:11;;;;;;;1.50;1.40;;;4.10;99.90;;;;;;5007563;28;20788;-71
2022/01/04 02:44:42;;;;;;;1.70;1.60;;;4.10;99.90;;;;;;5037887;28;20642;-68
2022/01/04 02:47:14;;;;;;;2.33;2.10;;;4.00;99.90;;;;;;5026843;28;20343;-68
2022/01/04 02:49:45;;;;;;;1.90;1.80;;;4.00;99.90;;;;;;5028028;28;20222;-67
2022/01/04 02:52:16;;;;;;;1.40;1.40;;;4.00;99.90;;;;;;5029893;28;20218;-68
2022/01/04 02:54:49;;;;;;;1.73;1.63;;;4.10;99.90;;;;;;5027844;28;20213;-67
2022/01/04 02:57:20;;;;;;;3.30;2.42;;;4.10;99.90;;;;;;5029673;28;20233;-66
2022/01/04 02:59:51;;;;;;;1.90;1.80;;;4.10;99.90;;;;;;5033910;28;20207;-71
2022/01/04 03:02:22;;;;;;;1.70;1.60;;;4.10;99.90;;;;;;5028063;28;20684;-67
2022/01/04 03:04:53;;;;;;;2.67;2.47;;;4.10;99.90;;;;;;5026362;28;20550;-68
2022/01/04 03:07:24;;;;;;;2.53;2.15;;;4.10;99.90;;;;;;5023215;28;20224;-69
2022/01/04 03:09:56;;;;;;;2.45;1.90;;;4.10;99.90;;;;;;5026682;28;20234;-62
2022/01/04 03:12:27;;;;;;;2.20;2.00;;;4.10;99.90;;;;;;5029176;28;20218;-63
2022/01/04 03:14:58;;;;;;;2.88;2.67;;;4.00;99.90;;;;;;5027266;28;20238;-65
2022/01/04 03:17:29;;;;;;;3.83;2.63;;;4.00;99.90;;;;;;5029281;28;20218;-62
2022/01/04 03:20:00;;;;;;;19.35;6.88;;;4.00;99.90;;;;;;5026075;28;20218;-63
2022/01/04 03:22:30;;;;;;;4.05;3.75;;;4.00;99.90;;;;;;5027195;28;20218;-63
2022/01/04 03:25:03;;;;;;;4.25;3.85;;;4.10;99.90;;;;;;5015999;28;20628;-63
2022/01/04 03:27:34;;;;;;;4.55;4.15;;;4.10;99.90;;;;;;5025333;28;20606;-64
2022/01/04 03:30:06;;;;;;;3.45;3.25;;;4.20;99.90;;;;;;5030114;28;20233;-64
2022/01/04 03:32:37;;;;;;;2.92;2.70;;;4.20;99.90;;;;;;5025730;28;20215;-67
2022/01/04 03:35:09;;;;;;;2.85;2.50;;;4.10;99.90;;;;;;5036264;28;20214;-67
2022/01/04 03:37:40;;;;;;;2.80;2.60;;;4.10;99.90;;;;;;5031706;28;20222;-67
2022/01/04 03:40:13;;;;;;;2.50;2.30;;;4.10;99.90;;;;;;5033294;28;20218;-68
2022/01/04 03:42:44;;;;;;;2.10;2.00;;;4.10;99.90;;;;;;5030558;28;20639;-67
2022/01/04 03:45:15;;;;;;;2.65;2.40;;;4.10;99.90;;;;;;5032342;28;20227;-66
2022/01/04 03:47:46;;;;;;;2.92;2.72;;;4.10;99.90;;;;;;5026587;28;20218;-66
2022/01/04 03:50:17;;;;;;;2.85;2.65;;;4.10;99.90;;;;;;5029079;28;20241;-67
2022/01/04 03:52:48;;;;;;;2.55;2.38;;;4.20;99.90;;;;;;5025868;28;20292;-65
2022/01/04 03:55:20;;;;;;;2.78;2.58;;;4.20;99.90;;;;;;5039722;28;20214;-67
2022/01/04 03:57:51;;;;;;;2.20;2.10;;;4.20;99.90;;;;;;5030983;28;20218;-68
2022/01/04 04:00:22;;;;;;;3.13;2.92;;;4.20;99.90;;;;;;5039449;28;20227;-69
2022/01/04 04:02:53;;;;;;;3.08;2.88;;;4.20;99.90;;;;;;5022413;28;20625;-66
2022/01/04 04:05:24;;;;;;;2.65;2.50;;;4.20;99.90;;;;;;5033328;28;20260;-64
2022/01/04 04:07:55;;;;;;;2.40;2.20;;;4.10;99.90;;;;;;5043698;28;20636;-65
2022/01/04 04:10:27;;;;;;;2.92;2.72;;;4.20;99.90;;;;;;5035049;28;20239;-65
2022/01/04 04:12:59;;;;;;;2.63;2.42;;;4.20;99.90;;;;;;5038511;28;20595;-66
2022/01/04 04:15:30;;;;;;;2.80;2.60;;;4.20;99.90;;;;;;5037705;28;20221;-66
2022/01/04 04:18:03;;;;;;;2.80;2.60;;;4.20;99.90;;;;;;5031630;28;20591;-65
2022/01/04 04:20:34;;;;;;;3.13;2.90;;;4.20;99.90;;;;;;5044539;28;20214;-68
2022/01/04 04:23:05;;;;;;;2.65;2.45;;;4.20;99.90;;;;;;5037024;28;20537;-67
2022/01/04 04:25:38;;;;;;;2.90;2.70;;;4.10;99.90;;;;;;5030063;28;20716;-67
2022/01/04 04:28:10;;;;;;;3.63;3.35;;;4.10;99.90;;;;;;5038992;28;20549;-67
2022/01/04 04:30:41;;;;;;;8.25;6.18;;;4.20;99.90;;;;;;5032520;28;20249;-69
2022/01/04 04:33:12;;;;;;;4.05;3.67;;;4.30;99.90;;;;;;5035301;28;20246;-67
2022/01/04 04:35:43;;;;;;;2.97;2.78;;;4.30;99.90;;;;;;5017623;28;20225;-69
2022/01/04 04:38:13;;;;;;;3.90;3.60;;;4.30;99.90;;;;;;5028204;28;20554;-66
2022/01/04 04:40:46;;;;;;;3.58;2.90;;;4.30;99.90;;;;;;5038464;28;20224;-70
2022/01/04 04:43:17;;;;;;;2.95;2.75;;;4.30;99.90;;;;;;5037746;28;20766;-68
2022/01/04 04:45:48;;;;;;;3.08;2.88;;;4.30;99.90;;;;;;5034282;28;20215;-69
2022/01/04 04:48:19;;;;;;;2.70;2.50;;;4.30;99.90;;;;;;5034993;28;20297;-69
2022/01/04 04:50:50;;;;;;;2.90;2.70;;;4.20;99.90;;;;;;5024393;28;20250;-68
2022/01/04 04:53:21;;;;;;;2.17;2.08;;;4.20;99.90;;;;;;5034368;28;20230;-70
2022/01/04 04:55:53;;;;;;;2.90;2.70;;;4.20;99.90;;;;;;5039886;28;20221;-70
2022/01/04 04:58:24;;;;;;;2.63;2.42;;;4.20;99.90;;;;;;5041221;28;20222;-70
2022/01/04 05:00:55;;;;;;;3.15;2.75;;;4.30;99.90;;;;;;5024279;28;20210;-70
2022/01/04 05:03:28;;;;;;;3.58;2.55;;;4.30;99.90;;;;;;5013544;28;20536;-68
2022/01/04 05:05:59;;;;;;;3.05;2.50;;;4.30;99.90;;;;;;5034677;28;20226;-69
2022/01/04 05:08:30;;;;;;;2.47;2.28;;;4.30;99.90;;;;;;5026992;28;20767;-70
2022/01/04 05:11:03;;;;;;;2.47;2.20;;;4.30;99.90;;;;;;5031643;28;20641;-68
2022/01/04 05:13:34;;;;;;;2.25;2.15;;;4.30;99.90;;;;;;5035971;28;20696;-68
2022/01/04 05:16:05;;;;;;;2.03;1.92;;;4.30;99.90;;;;;;5037581;28;20664;-69
2022/01/04 05:18:36;;;;;;;3.80;2.10;;;4.30;99.90;;;;;;5031065;28;20656;-69
2022/01/04 05:21:07;;;;;;;2.33;2.13;;;4.40;99.90;;;;;;5035992;28;20257;-69
2022/01/04 05:23:38;;;;;;;2.03;1.92;;;4.40;99.90;;;;;;5028755;28;20232;-68
2022/01/04 05:26:11;;;;;;;2.78;2.58;;;4.40;99.90;;;;;;5041000;28;20218;-69
2022/01/04 05:28:45;;;;;;;2.45;1.92;;;4.40;99.90;;;;;;5035593;28;20214;-70
2022/01/04 05:31:16;;;;;;;2.00;1.90;;;4.40;99.90;;;;;;5033506;28;20251;-69
2022/01/04 05:33:47;;;;;;;1.95;1.85;;;4.40;99.90;;;;;;5033367;28;20245;-69
2022/01/04 05:36:18;;;;;;;2.67;2.40;;;4.40;99.90;;;;;;5027128;28;20261;-69
2022/01/04 05:38:49;;;;;;;3.17;2.47;;;4.50;99.90;;;;;;5032186;28;20563;-69
2022/01/04 05:41:22;;;;;;;2.63;2.42;;;4.50;99.90;;;;;;5042140;28;20244;-69
2022/01/04 05:43:53;;;;;;;1.73;1.63;;;4.40;99.90;;;;;;5033930;28;20237;-69
2022/01/04 05:46:24;;;;;;;2.13;1.77;;;4.40;99.90;;;;;;5034555;28;20571;-69
2022/01/04 05:48:55;;;;;;;2.20;1.80;;;4.50;99.90;;;;;;5029977;28;20253;-69
2022/01/04 05:51:26;;;;;;;2.17;1.67;;;4.50;99.90;;;;;;5036385;28;20237;-68
2022/01/04 05:53:57;;;;;;;2.05;1.85;;;4.50;99.90;;;;;;5037440;28;20218;-68
2022/01/04 05:56:30;;;;;;;2.17;1.90;;;4.50;99.90;;;;;;5043167;28;20590;-69
2022/01/04 05:59:01;;;;;;;2.03;1.85;;;4.60;99.90;;;;;;5033214;28;20706;-68
2022/01/04 06:01:31;;;;;;;2.65;1.88;;;4.60;99.90;;;;;;5033281;28;20626;-71
2022/01/04 06:04:02;;;;;;;2.45;1.80;;;4.60;99.90;;;;;;5032933;28;20218;-69
2022/01/04 06:06:33;;;;;;;2.45;2.00;;;4.60;99.90;;;;;;5039522;28;20325;-69
2022/01/04 06:09:04;;;;;;;2.00;1.70;;;4.60;99.90;;;;;;5038652;28;20226;-68
2022/01/04 06:11:58;;;;;;;1.95;1.85;;;4.60;99.90;;;;;;5028532;28;20248;-68
2022/01/04 06:17:16;;;;;;;2.03;1.88;;;4.70;99.90;;;;;;5034444;28;20217;-68
2022/01/04 06:19:47;;;;;;;2.17;2.08;;;4.60;99.90;;;;;;5034472;28;20214;-69
2022/01/04 06:22:18;;;;;;;2.53;2.20;;;4.60;99.90;;;;;;5030203;28;20228;-69
2022/01/04 06:24:49;;;;;;;1.90;1.80;;;4.70;99.90;;;;;;5029759;28;20545;-69
2022/01/04 06:27:22;;;;;;;2.38;2.17;;;4.70;99.90;;;;;;5029213;28;20248;-69
2022/01/04 06:29:53;;;;;;;2.20;2.10;;;4.80;99.90;;;;;;5035075;28;20216;-67
2022/01/04 06:32:24;;;;;;;2.47;2.25;;;4.80;99.90;;;;;;5027771;28;20238;-68
2022/01/04 06:34:55;;;;;;;2.08;1.98;;;4.90;99.90;;;;;;5037183;28;20230;-68
2022/01/04 06:37:26;;;;;;;4.03;2.80;;;4.90;99.90;;;;;;5022252;28;20219;-69
2022/01/04 06:39:57;;;;;;;3.30;2.60;;;4.80;99.90;;;;;;5029401;28;20218;-69
2022/01/04 06:42:29;;;;;;;2.70;2.50;;;4.80;99.90;;;;;;5038268;28;20300;-69
2022/01/04 06:45:00;;;;;;;2.90;2.50;;;4.80;99.90;;;;;;5034835;28;20309;-69
2022/01/04 06:47:31;;;;;;;1.83;1.73;;;4.70;99.90;;;;;;5031307;28;20218;-69
2022/01/04 06:50:02;;;;;;;2.83;2.53;;;4.70;99.90;;;;;;5022072;28;20226;-69
2022/01/04 06:52:33;;;;;;;3.22;2.70;;;4.70;99.90;;;;;;5024148;28;20336;-68
2022/01/04 06:55:05;;;;;;;2.50;2.30;;;4.60;99.90;;;;;;5030890;28;20218;-68
2022/01/04 06:57:38;;;;;;;3.20;2.40;;;4.70;99.90;;;;;;5039274;28;20396;-68
2022/01/04 07:00:10;;;;;;;1.70;1.60;;;4.60;99.90;;;;;;5031989;28;20661;-68
2022/01/04 07:02:41;;;;;;;1.75;1.65;;;4.60;99.90;;;;;;5033484;28;20217;-68
2022/01/04 07:05:12;;;;;;;1.10;1.08;;;4.50;99.90;;;;;;5028832;28;20334;-68
2022/01/04 07:07:43;;;;;;;1.98;1.48;;;4.50;99.90;;;;;;5025197;28;20222;-68
2022/01/04 07:10:14;;;;;;;1.73;1.63;;;4.50;99.90;;;;;;5027236;28;20244;-69
2022/01/04 07:12:46;;;;;;;2.35;1.42;;;4.60;99.90;;;;;;5032157;28;20371;-69
2022/01/04 07:15:17;;;;;;;2.45;1.65;;;4.60;99.90;;;;;;5028798;28;20368;-68
2022/01/04 07:17:48;;;;;;;1.77;1.67;;;4.70;99.90;;;;;;5027165;28;20225;-68
2022/01/04 07:20:19;;;;;;;1.38;1.27;;;4.70;99.90;;;;;;5024214;28;20245;-69
2022/01/04 07:22:50;;;;;;;3.00;1.85;;;4.80;99.90;;;;;;5023639;28;20622;-69
2022/01/04 07:25:21;;;;;;;2.15;1.75;;;4.70;99.90;;;;;;5043513;28;20712;-68
2022/01/04 07:27:53;;;;;;;1.55;1.45;;;4.80;99.90;;;;;;5029093;28;20638;-69
2022/01/04 07:30:24;;;;;;;1.55;1.45;;;4.80;99.90;;;;;;5028364;28;20221;-69
2022/01/04 07:32:55;;;;;;;1.75;1.65;;;4.80;99.90;;;;;;5040492;28;20237;-69
2022/01/04 07:35:26;;;;;;;1.60;1.50;;;4.80;99.90;;;;;;5029211;28;20218;-69
2022/01/04 07:37:57;;;;;;;1.60;1.50;;;4.90;99.90;;;;;;5028265;28;20221;-69
2022/01/04 07:40:28;;;;;;;1.60;1.50;;;4.90;99.90;;;;;;5028138;28;20599;-68
2022/01/04 07:43:01;;;;;;;1.70;1.60;;;4.80;99.90;;;;;;5030235;28;20317;-69
2022/01/04 07:45:33;;;;;;;1.85;1.60;;;4.80;99.90;;;;;;5033893;28;20218;-68
2022/01/04 07:48:05;;;;;;;2.03;1.60;;;4.80;99.90;;;;;;5035996;28;20279;-68
2022/01/04 07:50:36;;;;;;;1.85;1.17;;;4.80;99.90;;;;;;5026225;28;20222;-69
2022/01/04 07:53:08;;;;;;;2.20;1.98;;;4.70;99.90;;;;;;5027835;28;20225;-68
2022/01/04 07:55:38;;;;;;;2.20;1.20;;;4.80;99.90;;;;;;5040820;28;20227;-69
2022/01/04 07:58:11;;;;;;;1.52;1.42;;;4.90;99.90;;;;;;5025277;28;20224;-68
2022/01/04 08:00:42;;;;;;;2.00;1.90;;;4.90;99.90;;;;;;5031738;28;20235;-68
2022/01/04 08:03:13;;;;;;;1.77;1.60;;;4.90;99.90;;;;;;5033669;28;20306;-70
2022/01/04 08:05:44;;;;;;;1.92;1.33;;;4.80;99.90;;;;;;5024172;28;20234;-69
2022/01/04 08:08:16;;;;;;;1.58;1.48;;;4.80;99.90;;;;;;5032161;28;20324;-69
2022/01/04 08:10:48;;;;;;;2.35;1.33;;;4.70;99.90;;;;;;5025992;28;20658;-68
2022/01/04 08:13:20;;;;;;;2.95;1.35;;;4.60;99.90;;;;;;5014625;28;20227;-69
2022/01/04 08:15:51;;;;;;;2.85;1.50;;;4.60;99.90;;;;;;5026154;28;20218;-68
2022/01/04 08:18:22;;;;;;;1.65;1.42;;;4.60;99.90;;;;;;5027187;28;20233;-68
2022/01/04 08:20:57;;;;;;;2.22;1.27;;;4.60;99.90;;;;;;5027855;28;20232;-68
2022/01/04 08:23:30;;;;;;;2.42;1.48;;;4.50;99.90;;;;;;5027449;28;20210;-68
2022/01/04 08:26:01;;;;;;;1.38;1.00;;;4.50;99.90;;;;;;5036076;28;20702;-69
2022/01/04 08:28:33;;;;;;;0.82;0.70;;;4.50;99.90;;;;;;5021102;28;20654;-68
2022/01/04 08:31:05;;;;;;;3.42;1.15;;;4.50;99.90;;;;;;5023997;28;20225;-69
2022/01/04 08:33:52;;;;;;;0.60;0.57;;;4.50;99.90;;;;;;5035775;28;20229;-68
2022/01/04 08:36:26;;;;;;;0.90;0.90;;;4.50;99.90;;;;;;5032186;28;20223;-68
2022/01/04 08:38:57;;;;;;;1.08;0.80;;;4.50;99.90;;;;;;5023790;28;20650;-69
2022/01/04 08:41:28;;;;;;;1.58;1.10;;;4.50;99.90;;;;;;5027676;28;20256;-68
2022/01/04 08:44:00;;;;;;;1.30;1.13;;;4.50;99.90;;;;;;5027471;28;20233;-68
2022/01/04 08:46:33;;;;;;;1.15;0.85;;;4.50;99.90;;;;;;5023732;28;20325;-68
2022/01/04 08:49:07;;;;;;;0.90;0.82;;;4.50;99.90;;;;;;5010430;28;20218;-68
2022/01/04 08:51:38;;;;;;;0.60;0.60;;;4.50;99.90;;;;;;5029811;28;20218;-69
2022/01/04 08:54:09;;;;;;;1.40;0.75;;;4.50;99.90;;;;;;5027260;28;20226;-68
2022/01/04 08:56:40;;;;;;;0.98;0.98;;;4.50;99.90;;;;;;5029936;28;20663;-68
2022/01/04 08:59:13;;;;;;;0.80;0.80;;;4.50;99.90;;;;;;5027282;28;20306;-68
2022/01/04 09:01:44;;;;;;;2.15;1.17;;;4.60;99.90;;;;;;5025335;28;20214;-68
2022/01/04 09:04:15;;;;;;;0.68;0.68;;;4.60;99.90;;;;;;5026445;28;20250;-68
2022/01/04 09:06:46;;;;;;;1.27;1.17;;;4.70;99.90;;;;;;5026694;28;20653;-68
2022/01/04 09:09:17;;;;;;;5.07;1.15;;;4.60;99.90;;;;;;5026715;28;20226;-69
2022/01/04 09:11:48;;;;;;;1.23;0.75;;;4.60;99.90;;;;;;5025216;28;20222;-68
2022/01/04 09:14:28;;;;;;;2.25;0.70;;;4.60;99.90;;;;;;5026446;28;20556;-68
2022/01/04 09:19:47;;;;;;;0.85;0.85;;;4.60;99.90;;;;;;5024297;28;20218;-68
2022/01/04 09:22:18;;;;;;;2.05;1.00;;;4.70;99.90;;;;;;5026699;28;20230;-69
2022/01/04 09:24:49;;;;;;;1.80;0.90;;;4.70;99.90;;;;;;5030662;28;20241;-73
2022/01/04 09:27:20;;;;;;;2.15;0.77;;;4.60;99.90;;;;;;5030497;28;20218;-73
2022/01/04 09:29:53;;;;;;;0.65;0.65;;;4.70;99.90;;;;;;5032187;28;20752;-72
2022/01/04 09:32:24;;;;;;;0.55;0.55;;;4.70;99.90;;;;;;5031791;28;20236;-73
2022/01/04 09:34:55;;;;;;;0.68;0.52;;;4.60;99.90;;;;;;5030370;28;20242;-72
2022/01/04 09:37:26;;;;;;;1.38;0.60;;;4.70;99.90;;;;;;5031574;28;20238;-74
2022/01/04 09:39:57;;;;;;;0.63;0.52;;;4.60;99.90;;;;;;5031494;28;20250;-73
2022/01/04 09:42:28;;;;;;;0.95;0.95;;;4.60;99.90;;;;;;5026298;28;20238;-74
2022/01/04 09:45:04;;;;;;;0.95;0.60;;;4.60;99.90;;;;;;5031477;28;20214;-73
2022/01/04 09:47:35;;;;;;;0.50;0.50;;;4.60;99.90;;;;;;5031928;28;20276;-73
2022/01/04 09:50:10;;;;;;;0.60;0.60;;;4.50;99.90;;;;;;5030569;28;20218;-73
2022/01/04 09:52:49;;;;;;;1.13;0.90;;;4.60;99.90;;;;;;5030431;28;20205;-72
2022/01/04 09:55:20;;;;;;;0.75;0.75;;;4.60;99.90;;;;;;5028989;28;20240;-72
2022/01/04 09:57:51;;;;;;;2.90;1.27;;;4.60;99.90;;;;;;5031817;28;20306;-72
2022/01/04 10:00:24;;;;;;;1.45;1.23;;;4.50;99.90;;;;;;5031032;28;20245;-74
2022/01/04 10:03:11;;;;;;;0.68;0.60;;;4.50;99.90;;;;;;5031007;28;20660;-73
2022/01/04 10:05:43;;;;;;;0.80;0.80;;;4.50;99.90;;;;;;5030279;28;20628;-73
2022/01/04 10:08:17;;;;;;;1.35;0.77;;;4.40;99.90;;;;;;5018969;28;20221;-73
2022/01/04 10:10:48;;;;;;;0.90;0.80;;;4.40;99.90;;;;;;5020672;28;20221;-73
2022/01/04 10:13:30;;;;;;;1.50;0.80;;;4.40;99.90;;;;;;5032072;28;20220;-73
2022/01/04 10:16:03;;;;;;;1.27;0.70;;;4.30;99.90;;;;;;5023513;28;20308;-73
2022/01/04 10:18:34;;;;;;;0.90;0.90;;;4.30;99.90;;;;;;5026511;28;20570;-74
2022/01/04 10:21:16;;;;;;;1.00;0.90;;;4.30;99.90;;;;;;5016555;28;20309;-73
2022/01/04 10:23:57;;;;;;;2.05;0.65;;;4.30;99.90;;;;;;5033438;28;20213;-73
2022/01/04 10:26:37;;;;;;;0.55;0.55;;;4.30;99.90;;;;;;5030982;28;20222;-72
2022/01/04 10:29:22;;;;;;;0.95;0.80;;;4.30;99.90;;;;;;5027283;28;20581;-73
2022/01/04 10:31:57;;;;;;;0.80;0.70;;;4.40;99.90;;;;;;5022178;28;20218;-72
2022/01/04 10:34:47;;;;;;;1.00;0.70;;;4.40;99.90;;;;;;5030796;28;20256;-73
2022/01/04 10:37:39;;;;;;;0.75;0.32;;;4.30;99.90;;;;;;5029175;28;20568;-72
2022/01/04 10:40:15;;;;;;;0.80;0.70;;;4.30;99.90;;;;;;5023318;28;20215;-73
2022/01/04 10:42:47;;;;;;;1.15;0.60;;;4.30;99.90;;;;;;5036825;28;20708;-73
2022/01/04 10:45:34;;;;;;;0.98;0.70;;;4.40;99.90;;;;;;5030206;28;20219;-72
2022/01/04 10:48:19;;;;;;;2.60;0.73;;;4.30;99.90;;;;;;5024612;28;20272;-73
2022/01/04 10:50:53;;;;;;;3.00;1.08;;;4.30;99.90;;;;;;5021005;28;20218;-72
2022/01/04 10:53:28;;;;;;;0.93;0.77;;;4.40;99.90;;;;;;5037132;28;20224;-73
2022/01/04 10:56:01;;;;;;;1.17;0.68;;;4.40;99.90;;;;;;5029521;28;20768;-72
2022/01/04 10:58:35;;;;;;;0.93;0.82;;;4.50;99.90;;;;;;5029945;28;20393;-73
2022/01/04 11:01:08;;;;;;;2.75;0.65;;;4.50;99.90;;;;;;5022133;28;20218;-72
2022/01/04 11:03:45;;;;;;;1.40;0.75;;;4.50;99.90;;;;;;5029132;28;20218;-73
2022/01/04 11:06:17;;;;;;;1.02;0.30;;;4.50;99.90;;;;;;5028931;28;20291;-73
2022/01/04 11:08:48;;;;;;;1.40;0.60;;;4.50;99.90;;;;;;5031867;28;20218;-73
2022/01/04 11:11:19;;;;;;;0.93;0.60;;;4.50;99.90;;;;;;5035982;28;20223;-73
2022/01/04 11:13:51;;;;;;;0.50;0.47;;;4.60;99.90;;;;;;5028415;28;20292;-73
2022/01/04 11:16:23;;;;;;;2.78;0.57;;;4.60;99.90;;;;;;5034310;28;20229;-73
2022/01/04 11:18:57;;;;;;;1.05;0.60;;;4.60;99.90;;;;;;5027932;28;20232;-72
2022/01/04 11:21:31;;;;;;;1.67;0.88;;;4.70;99.90;;;;;;5028602;28;20219;-72
2022/01/04 11:24:03;;;;;;;2.25;0.63;;;4.60;99.90;;;;;;5027978;28;20604;-72
2022/01/04 11:26:35;;;;;;;0.63;0.50;;;4.60;99.90;;;;;;5030805;28;20695;-71
2022/01/04 11:29:05;;;;;;;1.63;0.50;;;4.70;99.90;;;;;;5033017;28;20301;-71
2022/01/04 11:31:58;;;;;;;1.55;1.00;;;4.60;99.90;;;;;;5035466;28;20214;-72
2022/01/04 11:34:51;;;;;;;1.20;0.55;;;4.60;99.90;;;;;;5025843;28;20260;-73
2022/01/04 11:37:24;;;;;;;2.35;0.52;;;4.50;99.90;;;;;;5027515;28;20211;-74
2022/01/04 11:39:56;;;;;;;1.05;0.65;;;4.50;99.90;;;;;;5027968;28;20254;-73
2022/01/04 11:42:40;;;;;;;1.02;0.60;;;4.50;99.90;;;;;;5029822;28;20228;-72
2022/01/04 11:45:12;;;;;;;1.02;0.90;;;4.50;99.90;;;;;;5032627;28;20218;-73
2022/01/04 11:47:49;;;;;;;1.27;0.80;;;4.50;99.90;;;;;;5021673;28;20218;-71
2022/01/04 11:50:24;;;;;;;1.13;1.02;;;4.40;99.90;;;;;;5028451;28;20222;-72
2022/01/04 11:52:56;;;;;;;2.58;0.95;;;4.40;99.90;;;;;;5030877;28;20294;-72
2022/01/04 11:55:29;;;;;;;1.77;0.85;;;4.40;99.90;;;;;;5038163;28;20244;-71
2022/01/04 11:58:02;;;;;;;1.88;0.70;;;4.50;99.90;;;;;;5029571;28;20240;-72
2022/01/04 12:00:41;;;;;;;1.80;1.65;;;4.40;99.90;;;;;;5028994;28;20210;-71
2022/01/04 12:03:18;;;;;;;1.30;1.20;;;4.50;99.90;;;;;;5028619;28;20214;-73
2022/01/04 12:06:03;;;;;;;0.52;0.52;;;4.50;99.90;;;;;;5019461;28;20241;-72
2022/01/04 12:08:36;;;;;;;1.33;1.00;;;4.50;99.90;;;;;;5032960;28;20217;-71
2022/01/04 12:11:41;;;;;;;4.47;0.70;;;4.60;99.90;;;;;;5027598;28;20721;-72
2022/01/04 12:14:27;;;;;;;1.17;0.60;;;4.60;99.90;;;;;;5021473;28;20226;-71
2022/01/04 12:17:07;;;;;;;1.42;0.85;;;4.60;99.90;;;;;;5030070;28;20315;-72
2022/01/04 12:19:48;;;;;;;2.95;0.93;;;4.60;99.90;;;;;;5033141;28;20224;-72
2022/01/04 12:22:35;;;;;;;4.70;1.17;;;4.70;99.90;;;;;;5024694;28;20611;-72
2022/01/04 12:25:08;;;;;;;8.07;2.58;;;4.70;99.90;;;;;;5027212;28;20552;-73
2022/01/04 12:27:40;;;;;;;2.25;0.90;;;4.80;99.90;;;;;;5028596;28;20704;-72
2022/01/04 12:30:28;;;;;;;1.15;0.63;;;4.90;99.90;;;;;;5028290;28;20629;-72
2022/01/04 12:33:28;;;;;;;2.78;0.50;;;4.80;99.90;;;;;;5024551;28;20679;-71
2022/01/04 12:35:59;;;;;;;1.95;0.65;;;4.90;99.90;;;;;;5028903;28;20245;-72
2022/01/04 12:38:32;;;;;;;2.47;0.88;;;4.90;99.90;;;;;;5024383;28;20266;-71
2022/01/04 12:41:04;;;;;;;1.40;0.75;;;4.90;99.90;;;;;;5021458;28;20397;-72
2022/01/04 12:43:34;;;;;;;3.53;0.85;;;4.90;99.90;;;;;;5029033;28;20223;-72
2022/01/04 12:46:06;;;;;;;1.45;1.00;;;5.00;99.90;;;;;;5028362;28;20578;-72
2022/01/04 12:48:46;;;;;;;1.25;0.60;;;4.90;99.90;;;;;;5026958;28;20775;-71
2022/01/04 12:51:27;;;;;;;1.42;1.00;;;5.00;99.90;;;;;;5021793;28;20222;-71
2022/01/04 12:54:01;;;;;;;1.50;1.40;;;5.00;99.90;;;;;;5021810;28;20226;-72
2022/01/04 12:56:32;;;;;;;3.63;0.73;;;5.00;99.90;;;;;;5036482;28;20237;-71
2022/01/04 12:59:09;;;;;;;1.42;0.60;;;5.00;99.90;;;;;;5018970;28;20702;-72
2022/01/04 13:01:44;;;;;;;1.75;0.50;;;5.00;99.90;;;;;;5026725;28;20313;-72
2022/01/04 13:04:23;;;;;;;3.28;1.35;;;5.00;99.90;;;;;;5028815;28;20293;-71
2022/01/04 13:06:56;;;;;;;1.15;0.65;;;5.00;99.90;;;;;;5026505;28;20781;-72
2022/01/04 13:13:30;;;;;;;1.27;0.50;;;5.00;99.90;;;;;;5026767;28;20588;-73
2022/01/04 13:16:22;;;;;;;1.85;1.30;;;5.00;99.90;;;;;;5023964;28;20253;-70
2022/01/04 13:18:55;;;;;;;2.58;0.98;;;5.00;99.90;;;;;;5026951;28;20214;-72
2022/01/04 13:21:28;;;;;;;2.22;0.65;;;5.00;99.90;;;;;;5023325;28;20364;-71
2022/01/04 13:23:59;;;;;;;2.92;1.30;;;4.90;99.90;;;;;;5028737;28;20225;-72
2022/01/04 13:26:37;;;;;;;5.53;1.33;;;4.80;99.90;;;;;;5045029;28;20217;-72
2022/01/04 13:29:12;;;;;;;4.03;1.30;;;4.70;99.90;;;;;;5031602;28;20443;-70
2022/01/04 13:31:43;;;;;;;2.90;0.93;;;4.70;99.90;;;;;;5031534;28;20222;-71
2022/01/04 13:45:00;;;;;;;1.48;1.35;;;4.70;99.90;;;;;;5008629;28;20280;-70
2022/01/04 13:52:23;;;;;;;4.80;0.95;;;4.70;99.90;;;;;;5019447;28;20566;-75
2022/01/04 15:20:29;;;;;;;2.70;1.30;;;5.00;99.90;;;;;;4956177;28;20675;-71
2022/01/04 15:23:34;;;;;;;3.03;1.50;;;5.00;99.90;;;;;;5034608;28;20269;-75
2022/01/04 15:40:10;;;;;;;2.55;1.30;;;5.10;99.90;;;;;;5046373;28;20224;-73
2022/01/04 15:55:37;;;;;;;61.25;13.68;;;5.10;99.90;;;;;;5031187;28;20226;-72
2022/01/04 15:58:18;;;;;;;3.63;1.80;;;5.20;99.90;;;;;;5040730;28;20551;-71
2022/01/04 16:05:23;;;;;;;8.60;2.53;;;5.20;99.90;;;;;;4990433;28;20217;-73
2022/01/04 16:08:16;;;;;;;3.15;2.10;;;5.20;99.90;;;;;;5009172;28;20224;-73
2022/01/04 16:10:56;;;;;;;4.90;2.60;;;5.30;99.90;;;;;;5020940;28;20312;-70
2022/01/04 16:14:20;;;;;;;4.22;2.80;;;5.40;99.90;;;;;;5021696;28;20309;-81
2022/01/04 16:17:29;;;;;;;6.75;2.63;;;5.40;99.90;;;;;;5026982;28;20630;-70
2022/01/04 16:23:22;;;;;;;2.30;2.10;;;5.40;99.90;;;;;;5005150;28;20782;-72